sensor_id;sensor_type;location;lat;lon;timestamp;pressure;altitude;pressure_sealevel;temperature;humidity
29359;BME280;16347;53.232;6.556;2023-04-30T00:00:15;102425.22;;;13.18;52.68
29359;BME280;16347;53.232;6.556;2023-04-30T00:02:43;102426.38;;;13.15;52.61
29359;BME280;16347;53.232;6.556;2023-04-30T00:05:11;102430.69;;;13.18;52.31
29359;BME280;16347;53.232;6.556;2023-04-30T00:07:39;102430.88;;;13.26;52.38
29359;BME280;16347;53.232;6.556;2023-04-30T00:10:09;102420.94;;;13.04;52.55
29359;BME280;16347;53.232;6.556;2023-04-30T00:12:37;102421.88;;;13.14;52.78
29359;BME280;16347;53.232;6.556;2023-04-30T00:15:08;102426.22;;;12.96;52.86
29359;BME280;16347;53.232;6.556;2023-04-30T00:17:36;102420.69;;;13.07;52.22
29359;BME280;16347;53.232;6.556;2023-04-30T00:20:05;102422.88;;;13.13;52.35
29359;BME280;16347;53.232;6.556;2023-04-30T00:22:33;102421.53;;;13.08;52.64
29359;BME280;16347;53.232;6.556;2023-04-30T00:25:01;102420.06;;;13.04;52.86
29359;BME280;16347;53.232;6.556;2023-04-30T00:27:29;102419.47;;;13.00;52.96
29359;BME280;16347;53.232;6.556;2023-04-30T00:29:57;102419.16;;;13.14;52.68
29359;BME280;16347;53.232;6.556;2023-04-30T00:32:27;102415.84;;;13.11;52.67
29359;BME280;16347;53.232;6.556;2023-04-30T00:34:55;102414.41;;;13.16;52.18
29359;BME280;16347;53.232;6.556;2023-04-30T00:37:23;102421.44;;;13.09;52.24
29359;BME280;16347;53.232;6.556;2023-04-30T00:39:51;102428.34;;;13.13;52.27
29359;BME280;16347;53.232;6.556;2023-04-30T00:42:19;102426.47;;;13.14;52.31
29359;BME280;16347;53.232;6.556;2023-04-30T00:44:47;102434.25;;;13.09;52.18
29359;BME280;16347;53.232;6.556;2023-04-30T00:47:14;102438.28;;;12.94;52.26
29359;BME280;16347;53.232;6.556;2023-04-30T00:49:44;102441.75;;;12.96;52.24
29359;BME280;16347;53.232;6.556;2023-04-30T00:52:12;102444.56;;;12.84;52.76
29359;BME280;16347;53.232;6.556;2023-04-30T00:54:40;102441.28;;;12.70;53.29
29359;BME280;16347;53.232;6.556;2023-04-30T00:57:11;102438.44;;;12.71;53.46
29359;BME280;16347;53.232;6.556;2023-04-30T00:59:40;102439.75;;;12.77;53.02
29359;BME280;16347;53.232;6.556;2023-04-30T01:02:08;102437.31;;;12.74;53.12
29359;BME280;16347;53.232;6.556;2023-04-30T01:04:37;102438.44;;;12.71;52.71
29359;BME280;16347;53.232;6.556;2023-04-30T01:07:06;102433.31;;;12.78;52.81
29359;BME280;16347;53.232;6.556;2023-04-30T01:09:34;102437.50;;;12.61;52.66
29359;BME280;16347;53.232;6.556;2023-04-30T01:12:07;102435.44;;;12.74;53.00
29359;BME280;16347;53.232;6.556;2023-04-30T01:14:43;102441.94;;;12.83;52.79
29359;BME280;16347;53.232;6.556;2023-04-30T01:17:17;102445.50;;;12.74;52.94
29359;BME280;16347;53.232;6.556;2023-04-30T01:19:47;102441.34;;;12.79;53.22
29359;BME280;16347;53.232;6.556;2023-04-30T01:22:29;102441.63;;;12.76;53.30
29359;BME280;16347;53.232;6.556;2023-04-30T01:25:10;102443.03;;;12.71;53.23
29359;BME280;16347;53.232;6.556;2023-04-30T01:28:06;102449.41;;;12.81;53.41
29359;BME280;16347;53.232;6.556;2023-04-30T01:30:35;102449.38;;;12.71;53.43
29359;BME280;16347;53.232;6.556;2023-04-30T01:33:03;102454.94;;;12.70;53.40
29359;BME280;16347;53.232;6.556;2023-04-30T01:35:47;102449.09;;;12.74;53.25
29359;BME280;16347;53.232;6.556;2023-04-30T01:38:38;102452.81;;;12.73;53.38
29359;BME280;16347;53.232;6.556;2023-04-30T01:41:12;102456.28;;;12.75;53.16
29359;BME280;16347;53.232;6.556;2023-04-30T01:43:51;102444.34;;;12.76;52.98
29359;BME280;16347;53.232;6.556;2023-04-30T01:46:24;102439.25;;;12.62;53.44
29359;BME280;16347;53.232;6.556;2023-04-30T01:49:00;102436.69;;;12.70;53.34
29359;BME280;16347;53.232;6.556;2023-04-30T01:51:36;102449.22;;;12.73;53.34
29359;BME280;16347;53.232;6.556;2023-04-30T01:54:11;102444.88;;;12.70;53.19
29359;BME280;16347;53.232;6.556;2023-04-30T01:56:46;102440.91;;;12.74;53.57
29359;BME280;16347;53.232;6.556;2023-04-30T01:59:17;102433.66;;;12.64;53.93
29359;BME280;16347;53.232;6.556;2023-04-30T02:01:45;102431.44;;;12.78;53.91
29359;BME280;16347;53.232;6.556;2023-04-30T02:04:14;102434.97;;;12.69;54.20
29359;BME280;16347;53.232;6.556;2023-04-30T02:06:41;102439.16;;;12.73;54.11
29359;BME280;16347;53.232;6.556;2023-04-30T02:09:09;102434.03;;;12.80;54.16
29359;BME280;16347;53.232;6.556;2023-04-30T02:11:37;102438.22;;;12.84;53.87
29359;BME280;16347;53.232;6.556;2023-04-30T02:14:05;102444.41;;;12.86;53.95
29359;BME280;16347;53.232;6.556;2023-04-30T02:16:34;102444.16;;;12.89;54.01
29359;BME280;16347;53.232;6.556;2023-04-30T02:19:03;102441.88;;;12.94;53.89
29359;BME280;16347;53.232;6.556;2023-04-30T02:21:31;102440.88;;;12.95;53.63
29359;BME280;16347;53.232;6.556;2023-04-30T02:23:59;102433.13;;;13.00;53.43
29359;BME280;16347;53.232;6.556;2023-04-30T02:26:27;102435.16;;;12.98;53.22
29359;BME280;16347;53.232;6.556;2023-04-30T02:28:54;102442.59;;;12.96;53.44
29359;BME280;16347;53.232;6.556;2023-04-30T02:31:22;102442.34;;;12.99;53.54
29359;BME280;16347;53.232;6.556;2023-04-30T02:33:51;102442.81;;;12.83;53.55
29359;BME280;16347;53.232;6.556;2023-04-30T02:36:19;102440.50;;;12.79;53.53
29359;BME280;16347;53.232;6.556;2023-04-30T02:38:47;102449.03;;;12.85;53.39
29359;BME280;16347;53.232;6.556;2023-04-30T02:41:15;102442.41;;;12.88;53.45
29359;BME280;16347;53.232;6.556;2023-04-30T02:43:43;102451.75;;;12.85;53.34
29359;BME280;16347;53.232;6.556;2023-04-30T02:46:11;102447.41;;;12.83;53.60
29359;BME280;16347;53.232;6.556;2023-04-30T02:48:39;102444.28;;;12.88;53.35
29359;BME280;16347;53.232;6.556;2023-04-30T02:51:08;102448.88;;;12.87;53.37
29359;BME280;16347;53.232;6.556;2023-04-30T02:53:36;102448.16;;;12.85;53.78
29359;BME280;16347;53.232;6.556;2023-04-30T02:56:04;102449.63;;;12.89;53.43
29359;BME280;16347;53.232;6.556;2023-04-30T02:58:32;102446.09;;;12.77;53.94
29359;BME280;16347;53.232;6.556;2023-04-30T03:01:00;102442.81;;;12.83;53.93
29359;BME280;16347;53.232;6.556;2023-04-30T03:03:28;102446.81;;;12.79;53.91
29359;BME280;16347;53.232;6.556;2023-04-30T03:05:56;102445.53;;;12.83;53.50
29359;BME280;16347;53.232;6.556;2023-04-30T03:08:26;102445.97;;;12.79;53.66
29359;BME280;16347;53.232;6.556;2023-04-30T03:10:54;102440.56;;;12.68;54.03
29359;BME280;16347;53.232;6.556;2023-04-30T03:13:22;102445.03;;;12.69;54.59
29359;BME280;16347;53.232;6.556;2023-04-30T03:15:56;102443.47;;;12.76;54.10
29359;BME280;16347;53.232;6.556;2023-04-30T03:18:24;102442.69;;;12.64;54.20
29359;BME280;16347;53.232;6.556;2023-04-30T03:20:52;102446.03;;;12.68;54.32
29359;BME280;16347;53.232;6.556;2023-04-30T03:23:20;102445.88;;;12.69;54.54
29359;BME280;16347;53.232;6.556;2023-04-30T03:25:49;102446.75;;;12.70;54.26
29359;BME280;16347;53.232;6.556;2023-04-30T03:28:17;102451.00;;;12.63;54.70
29359;BME280;16347;53.232;6.556;2023-04-30T03:30:45;102452.69;;;12.75;54.54
29359;BME280;16347;53.232;6.556;2023-04-30T03:33:13;102452.69;;;12.75;54.25
29359;BME280;16347;53.232;6.556;2023-04-30T03:35:41;102454.50;;;12.65;54.50
29359;BME280;16347;53.232;6.556;2023-04-30T03:38:09;102454.81;;;12.71;54.30
29359;BME280;16347;53.232;6.556;2023-04-30T03:40:37;102456.94;;;12.68;54.50
29359;BME280;16347;53.232;6.556;2023-04-30T03:43:06;102452.97;;;12.72;54.30
29359;BME280;16347;53.232;6.556;2023-04-30T03:45:34;102453.34;;;12.67;54.11
29359;BME280;16347;53.232;6.556;2023-04-30T03:48:02;102462.13;;;12.71;54.20
29359;BME280;16347;53.232;6.556;2023-04-30T03:50:30;102462.13;;;12.71;53.81
29359;BME280;16347;53.232;6.556;2023-04-30T03:52:58;102462.78;;;12.63;54.07
29359;BME280;16347;53.232;6.556;2023-04-30T03:55:26;102464.19;;;12.58;53.99
29359;BME280;16347;53.232;6.556;2023-04-30T03:57:54;102457.34;;;12.63;54.12
29359;BME280;16347;53.232;6.556;2023-04-30T04:00:23;102468.25;;;12.63;53.65
29359;BME280;16347;53.232;6.556;2023-04-30T04:02:52;102470.13;;;12.63;53.90
29359;BME280;16347;53.232;6.556;2023-04-30T04:05:21;102465.66;;;12.62;54.14
29359;BME280;16347;53.232;6.556;2023-04-30T04:07:49;102463.25;;;12.48;53.63
29359;BME280;16347;53.232;6.556;2023-04-30T04:10:16;102469.69;;;12.47;54.13
29359;BME280;16347;53.232;6.556;2023-04-30T04:12:44;102468.34;;;12.52;54.37
29359;BME280;16347;53.232;6.556;2023-04-30T04:15:13;102469.09;;;12.43;54.02
29359;BME280;16347;53.232;6.556;2023-04-30T04:17:42;102465.78;;;12.40;54.07
29359;BME280;16347;53.232;6.556;2023-04-30T04:20:11;102478.31;;;12.42;54.08
29359;BME280;16347;53.232;6.556;2023-04-30T04:22:40;102482.28;;;12.38;54.27
29359;BME280;16347;53.232;6.556;2023-04-30T04:25:08;102480.09;;;12.32;54.19
29359;BME280;16347;53.232;6.556;2023-04-30T04:27:37;102484.53;;;12.33;54.63
29359;BME280;16347;53.232;6.556;2023-04-30T04:30:06;102489.09;;;12.32;54.26
29359;BME280;16347;53.232;6.556;2023-04-30T04:32:34;102490.75;;;12.24;54.78
29359;BME280;16347;53.232;6.556;2023-04-30T04:35:09;102484.69;;;12.20;54.79
29359;BME280;16347;53.232;6.556;2023-04-30T04:37:37;102487.91;;;12.25;54.69
29359;BME280;16347;53.232;6.556;2023-04-30T04:40:06;102497.34;;;12.21;54.83
29359;BME280;16347;53.232;6.556;2023-04-30T04:42:35;102487.06;;;12.25;55.19
29359;BME280;16347;53.232;6.556;2023-04-30T04:45:05;102494.22;;;12.26;54.83
29359;BME280;16347;53.232;6.556;2023-04-30T04:47:33;102487.53;;;12.19;55.23
29359;BME280;16347;53.232;6.556;2023-04-30T04:50:02;102496.94;;;12.26;55.00
29359;BME280;16347;53.232;6.556;2023-04-30T04:52:31;102491.22;;;12.29;55.44
29359;BME280;16347;53.232;6.556;2023-04-30T04:54:59;102489.00;;;12.34;55.33
29359;BME280;16347;53.232;6.556;2023-04-30T04:57:27;102495.06;;;12.38;55.25
29359;BME280;16347;53.232;6.556;2023-04-30T04:59:54;102491.78;;;12.44;55.56
29359;BME280;16347;53.232;6.556;2023-04-30T05:02:22;102489.44;;;12.39;55.96
29359;BME280;16347;53.232;6.556;2023-04-30T05:04:51;102494.53;;;12.44;56.16
29359;BME280;16347;53.232;6.556;2023-04-30T05:07:19;102494.00;;;12.50;56.25
29359;BME280;16347;53.232;6.556;2023-04-30T05:09:48;102493.63;;;12.54;56.12
29359;BME280;16347;53.232;6.556;2023-04-30T05:12:16;102496.34;;;12.54;55.69
29359;BME280;16347;53.232;6.556;2023-04-30T05:14:43;102498.81;;;12.57;55.75
29359;BME280;16347;53.232;6.556;2023-04-30T05:17:11;102498.16;;;12.65;56.01
29359;BME280;16347;53.232;6.556;2023-04-30T05:19:39;102495.28;;;12.66;55.79
29359;BME280;16347;53.232;6.556;2023-04-30T05:22:07;102502.22;;;12.70;55.88
29359;BME280;16347;53.232;6.556;2023-04-30T05:24:35;102504.41;;;12.76;55.24
29359;BME280;16347;53.232;6.556;2023-04-30T05:27:04;102507.00;;;12.78;55.23
29359;BME280;16347;53.232;6.556;2023-04-30T05:29:32;102516.66;;;12.82;54.96
29359;BME280;16347;53.232;6.556;2023-04-30T05:32:00;102507.47;;;12.83;54.52
29359;BME280;16347;53.232;6.556;2023-04-30T05:34:29;102489.69;;;12.68;54.07
29359;BME280;16347;53.232;6.556;2023-04-30T05:36:56;102489.97;;;12.65;54.58
29359;BME280;16347;53.232;6.556;2023-04-30T05:39:24;102506.72;;;12.60;55.50
29359;BME280;16347;53.232;6.556;2023-04-30T05:41:52;102504.59;;;12.64;55.31
29359;BME280;16347;53.232;6.556;2023-04-30T05:44:21;102516.22;;;12.66;55.05
29359;BME280;16347;53.232;6.556;2023-04-30T05:46:49;102511.78;;;12.65;54.17
29359;BME280;16347;53.232;6.556;2023-04-30T05:49:17;102507.06;;;12.67;54.01
29359;BME280;16347;53.232;6.556;2023-04-30T05:51:45;102523.84;;;12.62;54.43
29359;BME280;16347;53.232;6.556;2023-04-30T05:54:13;102526.69;;;12.61;55.20
29359;BME280;16347;53.232;6.556;2023-04-30T05:56:40;102536.81;;;12.70;55.14
29359;BME280;16347;53.232;6.556;2023-04-30T05:59:08;102539.00;;;12.76;55.56
29359;BME280;16347;53.232;6.556;2023-04-30T06:01:37;102530.31;;;12.82;55.04
29359;BME280;16347;53.232;6.556;2023-04-30T06:04:06;102530.91;;;12.85;54.72
29359;BME280;16347;53.232;6.556;2023-04-30T06:06:34;102528.78;;;12.89;54.77
29359;BME280;16347;53.232;6.556;2023-04-30T06:09:02;102529.41;;;12.93;54.93
29359;BME280;16347;53.232;6.556;2023-04-30T06:11:31;102531.00;;;12.95;55.25
29359;BME280;16347;53.232;6.556;2023-04-30T06:13:58;102530.56;;;13.00;54.87
29359;BME280;16347;53.232;6.556;2023-04-30T06:16:27;102542.09;;;13.03;54.68
29359;BME280;16347;53.232;6.556;2023-04-30T06:18:57;102530.28;;;13.03;54.57
29359;BME280;16347;53.232;6.556;2023-04-30T06:21:25;102527.31;;;13.06;53.90
29359;BME280;16347;53.232;6.556;2023-04-30T06:23:53;102522.59;;;13.08;53.89
29359;BME280;16347;53.232;6.556;2023-04-30T06:26:21;102532.78;;;13.06;52.97
29359;BME280;16347;53.232;6.556;2023-04-30T06:28:48;102532.56;;;13.09;52.65
29359;BME280;16347;53.232;6.556;2023-04-30T06:31:16;102536.25;;;13.08;52.72
29359;BME280;16347;53.232;6.556;2023-04-30T06:33:44;102536.88;;;13.11;52.49
29359;BME280;16347;53.232;6.556;2023-04-30T06:36:13;102538.72;;;13.11;51.97
29359;BME280;16347;53.232;6.556;2023-04-30T06:38:41;102537.47;;;13.15;52.02
29359;BME280;16347;53.232;6.556;2023-04-30T06:41:09;102544.53;;;13.17;51.52
29359;BME280;16347;53.232;6.556;2023-04-30T06:43:37;102544.84;;;13.24;51.41
29359;BME280;16347;53.232;6.556;2023-04-30T06:46:05;102546.00;;;13.21;50.79
29359;BME280;16347;53.232;6.556;2023-04-30T06:48:33;102551.72;;;13.18;51.02
29359;BME280;16347;53.232;6.556;2023-04-30T06:51:01;102550.31;;;13.24;51.35
29359;BME280;16347;53.232;6.556;2023-04-30T06:53:30;102550.31;;;13.24;51.04
29359;BME280;16347;53.232;6.556;2023-04-30T06:55:58;102557.25;;;13.28;50.88
29359;BME280;16347;53.232;6.556;2023-04-30T06:58:26;102552.66;;;13.28;50.48
29359;BME280;16347;53.232;6.556;2023-04-30T07:00:53;102553.25;;;13.32;50.34
29359;BME280;16347;53.232;6.556;2023-04-30T07:03:22;102549.75;;;13.30;50.46
29359;BME280;16347;53.232;6.556;2023-04-30T07:05:50;102543.03;;;13.34;50.74
29359;BME280;16347;53.232;6.556;2023-04-30T07:08:19;102543.91;;;13.34;50.88
29359;BME280;16347;53.232;6.556;2023-04-30T07:10:49;102548.97;;;13.39;49.96
29359;BME280;16347;53.232;6.556;2023-04-30T07:13:17;102546.38;;;13.38;50.40
29359;BME280;16347;53.232;6.556;2023-04-30T07:15:45;102545.09;;;13.42;50.76
29359;BME280;16347;53.232;6.556;2023-04-30T07:18:13;102543.84;;;13.46;50.54
29359;BME280;16347;53.232;6.556;2023-04-30T07:20:41;102538.81;;;13.51;50.38
29359;BME280;16347;53.232;6.556;2023-04-30T07:23:09;102535.09;;;13.52;50.34
29359;BME280;16347;53.232;6.556;2023-04-30T07:25:37;102537.81;;;13.52;50.28
29359;BME280;16347;53.232;6.556;2023-04-30T07:28:07;102540.56;;;13.31;49.35
29359;BME280;16347;53.232;6.556;2023-04-30T07:30:35;102537.28;;;13.37;49.74
29359;BME280;16347;53.232;6.556;2023-04-30T07:33:03;102541.50;;;13.41;49.75
29359;BME280;16347;53.232;6.556;2023-04-30T07:35:31;102542.38;;;13.42;49.35
29359;BME280;16347;53.232;6.556;2023-04-30T07:37:59;102539.09;;;13.48;49.56
29359;BME280;16347;53.232;6.556;2023-04-30T07:40:27;102534.81;;;13.55;49.51
29359;BME280;16347;53.232;6.556;2023-04-30T07:43:00;102541.25;;;13.54;48.78
29359;BME280;16347;53.232;6.556;2023-04-30T07:45:29;102539.00;;;13.59;49.12
29359;BME280;16347;53.232;6.556;2023-04-30T07:48:00;102534.13;;;13.62;48.78
29359;BME280;16347;53.232;6.556;2023-04-30T07:50:28;102537.03;;;13.70;48.97
29359;BME280;16347;53.232;6.556;2023-04-30T07:53:00;102535.16;;;13.71;48.81
29359;BME280;16347;53.232;6.556;2023-04-30T07:55:28;102541.09;;;13.76;48.83
29359;BME280;16347;53.232;6.556;2023-04-30T07:57:56;102535.34;;;13.79;48.29
29359;BME280;16347;53.232;6.556;2023-04-30T08:00:25;102534.19;;;13.81;48.15
29359;BME280;16347;53.232;6.556;2023-04-30T08:02:56;102536.75;;;13.73;48.07
29359;BME280;16347;53.232;6.556;2023-04-30T08:05:24;102544.09;;;13.73;48.94
29359;BME280;16347;53.232;6.556;2023-04-30T08:07:52;102537.19;;;13.78;48.62
29359;BME280;16347;53.232;6.556;2023-04-30T08:10:20;102538.34;;;13.76;48.87
29359;BME280;16347;53.232;6.556;2023-04-30T08:12:48;102540.53;;;13.82;48.99
29359;BME280;16347;53.232;6.556;2023-04-30T08:15:17;102543.94;;;13.74;48.09
29359;BME280;16347;53.232;6.556;2023-04-30T08:17:48;102545.41;;;13.78;48.62
29359;BME280;16347;53.232;6.556;2023-04-30T08:20:17;102545.59;;;13.86;48.58
29359;BME280;16347;53.232;6.556;2023-04-30T08:22:45;102550.34;;;13.94;48.62
29359;BME280;16347;53.232;6.556;2023-04-30T08:25:13;102556.28;;;13.99;48.72
29359;BME280;16347;53.232;6.556;2023-04-30T08:27:41;102550.94;;;14.07;48.46
29359;BME280;16347;53.232;6.556;2023-04-30T08:30:10;102555.72;;;14.05;48.41
29359;BME280;16347;53.232;6.556;2023-04-30T08:32:37;102553.28;;;14.12;48.37
29359;BME280;16347;53.232;6.556;2023-04-30T08:35:06;102543.06;;;14.14;47.65
29359;BME280;16347;53.232;6.556;2023-04-30T08:37:36;102553.56;;;14.18;47.47
29359;BME280;16347;53.232;6.556;2023-04-30T08:40:05;102553.44;;;14.20;47.90
29359;BME280;16347;53.232;6.556;2023-04-30T08:42:36;102556.03;;;14.21;47.67
29359;BME280;16347;53.232;6.556;2023-04-30T08:45:07;102548.09;;;14.18;48.10
29359;BME280;16347;53.232;6.556;2023-04-30T08:47:38;102558.06;;;14.19;47.25
29359;BME280;16347;53.232;6.556;2023-04-30T08:50:07;102561.19;;;14.15;47.82
29359;BME280;16347;53.232;6.556;2023-04-30T08:52:37;102556.47;;;14.17;48.42
29359;BME280;16347;53.232;6.556;2023-04-30T08:55:07;102554.59;;;14.27;47.47
29359;BME280;16347;53.232;6.556;2023-04-30T08:57:36;102556.50;;;14.26;47.51
29359;BME280;16347;53.232;6.556;2023-04-30T09:00:06;102553.34;;;14.41;47.14
29359;BME280;16347;53.232;6.556;2023-04-30T09:02:38;102552.06;;;14.45;47.09
29359;BME280;16347;53.232;6.556;2023-04-30T09:05:09;102549.50;;;14.43;47.59
29359;BME280;16347;53.232;6.556;2023-04-30T09:07:41;102551.06;;;14.36;46.34
29359;BME280;16347;53.232;6.556;2023-04-30T09:10:31;102548.34;;;14.46;46.72
29359;BME280;16347;53.232;6.556;2023-04-30T09:13:00;102548.75;;;14.51;45.27
29359;BME280;16347;53.232;6.556;2023-04-30T09:15:28;102545.59;;;14.46;45.30
29359;BME280;16347;53.232;6.556;2023-04-30T09:18:07;102543.84;;;14.54;45.33
29359;BME280;16347;53.232;6.556;2023-04-30T09:20:36;102540.53;;;14.51;46.15
29359;BME280;16347;53.232;6.556;2023-04-30T09:23:07;102546.31;;;14.48;45.57
29359;BME280;16347;53.232;6.556;2023-04-30T09:25:39;102546.75;;;14.43;45.60
29359;BME280;16347;53.232;6.556;2023-04-30T09:28:09;102541.28;;;14.53;46.21
29359;BME280;16347;53.232;6.556;2023-04-30T09:30:38;102541.41;;;14.61;46.33
29359;BME280;16347;53.232;6.556;2023-04-30T09:33:07;102539.69;;;14.69;45.88
29359;BME280;16347;53.232;6.556;2023-04-30T09:35:39;102541.44;;;14.70;46.26
29359;BME280;16347;53.232;6.556;2023-04-30T09:38:24;102541.84;;;14.75;45.21
29359;BME280;16347;53.232;6.556;2023-04-30T09:40:52;102544.75;;;14.74;44.96
29359;BME280;16347;53.232;6.556;2023-04-30T09:43:20;102538.41;;;14.73;45.78
29359;BME280;16347;53.232;6.556;2023-04-30T09:45:48;102537.09;;;14.77;45.72
29359;BME280;16347;53.232;6.556;2023-04-30T09:48:19;102542.59;;;14.87;45.08
29359;BME280;16347;53.232;6.556;2023-04-30T09:50:48;102542.59;;;14.87;44.80
29359;BME280;16347;53.232;6.556;2023-04-30T09:53:18;102538.09;;;14.86;44.38
29359;BME280;16347;53.232;6.556;2023-04-30T09:55:48;102537.22;;;14.85;44.44
29359;BME280;16347;53.232;6.556;2023-04-30T09:58:17;102525.56;;;14.83;44.45
29359;BME280;16347;53.232;6.556;2023-04-30T10:00:45;102528.16;;;14.85;44.87
29359;BME280;16347;53.232;6.556;2023-04-30T10:03:15;102525.97;;;14.88;44.61
29359;BME280;16347;53.232;6.556;2023-04-30T10:05:44;102530.00;;;14.94;45.37
29359;BME280;16347;53.232;6.556;2023-04-30T10:08:18;102530.00;;;15.04;44.89
29359;BME280;16347;53.232;6.556;2023-04-30T10:10:50;102527.56;;;15.10;44.05
29359;BME280;16347;53.232;6.556;2023-04-30T10:13:21;102520.16;;;15.20;43.88
29359;BME280;16347;53.232;6.556;2023-04-30T10:15:51;102516.09;;;15.34;44.44
29359;BME280;16347;53.232;6.556;2023-04-30T10:18:25;102507.97;;;15.42;44.69
29359;BME280;16347;53.232;6.556;2023-04-30T10:20:56;102511.44;;;15.44;43.47
29359;BME280;16347;53.232;6.556;2023-04-30T10:23:25;102502.19;;;15.45;43.59
29359;BME280;16347;53.232;6.556;2023-04-30T10:25:55;102500.47;;;15.34;43.42
29359;BME280;16347;53.232;6.556;2023-04-30T10:28:24;102502.22;;;15.35;43.96
29359;BME280;16347;53.232;6.556;2023-04-30T10:30:52;102499.75;;;15.42;44.45
29359;BME280;16347;53.232;6.556;2023-04-30T10:33:27;102496.84;;;15.53;45.25
29359;BME280;16347;53.232;6.556;2023-04-30T10:35:58;102496.16;;;15.51;44.61
29359;BME280;16347;53.232;6.556;2023-04-30T10:38:29;102493.25;;;15.53;43.93
29359;BME280;16347;53.232;6.556;2023-04-30T10:40:59;102484.59;;;15.57;42.94
29359;BME280;16347;53.232;6.556;2023-04-30T10:43:29;102478.94;;;15.59;43.84
29359;BME280;16347;53.232;6.556;2023-04-30T10:45:58;102482.53;;;15.59;43.11
29359;BME280;16347;53.232;6.556;2023-04-30T10:48:27;102481.09;;;15.55;42.83
29359;BME280;16347;53.232;6.556;2023-04-30T10:50:58;102473.19;;;15.43;43.70
29359;BME280;16347;53.232;6.556;2023-04-30T10:53:30;102469.91;;;15.39;41.86
29359;BME280;16347;53.232;6.556;2023-04-30T10:56:02;102470.16;;;15.46;41.68
29359;BME280;16347;53.232;6.556;2023-04-30T10:58:33;102465.53;;;15.56;42.69
29359;BME280;16347;53.232;6.556;2023-04-30T11:01:05;102471.88;;;15.56;41.91
29359;BME280;16347;53.232;6.556;2023-04-30T11:03:35;102461.84;;;15.65;43.15
29359;BME280;16347;53.232;6.556;2023-04-30T11:06:07;102453.28;;;15.77;44.06
29359;BME280;16347;53.232;6.556;2023-04-30T11:08:38;102456.13;;;15.85;44.35
29359;BME280;16347;53.232;6.556;2023-04-30T11:11:10;102452.81;;;15.82;45.27
29359;BME280;16347;53.232;6.556;2023-04-30T11:13:43;102445.81;;;15.97;45.52
29359;BME280;16347;53.232;6.556;2023-04-30T11:16:12;102448.00;;;15.94;45.74
29359;BME280;16347;53.232;6.556;2023-04-30T11:18:41;102441.63;;;15.93;44.79
29359;BME280;16347;53.232;6.556;2023-04-30T11:21:10;102441.88;;;16.00;45.50
29359;BME280;16347;53.232;6.556;2023-04-30T11:23:41;102430.13;;;16.07;44.62
29359;BME280;16347;53.232;6.556;2023-04-30T11:26:10;102435.31;;;16.10;44.62
29359;BME280;16347;53.232;6.556;2023-04-30T11:28:38;102441.25;;;16.23;44.56
29359;BME280;16347;53.232;6.556;2023-04-30T11:31:17;102430.38;;;16.31;45.03
29359;BME280;16347;53.232;6.556;2023-04-30T11:33:45;102418.25;;;16.42;44.77
29359;BME280;16347;53.232;6.556;2023-04-30T11:36:13;102433.06;;;16.49;45.13
29359;BME280;16347;53.232;6.556;2023-04-30T11:38:45;102427.00;;;16.55;43.26
29359;BME280;16347;53.232;6.556;2023-04-30T11:41:13;102428.72;;;16.56;42.98
29359;BME280;16347;53.232;6.556;2023-04-30T11:43:41;102422.91;;;16.59;43.48
29359;BME280;16347;53.232;6.556;2023-04-30T11:46:10;102421.56;;;16.63;43.30
29359;BME280;16347;53.232;6.556;2023-04-30T11:48:40;102422.44;;;16.64;42.51
29359;BME280;16347;53.232;6.556;2023-04-30T11:51:15;102414.03;;;16.65;42.12
29359;BME280;16347;53.232;6.556;2023-04-30T11:53:46;102409.59;;;16.72;42.95
29359;BME280;16347;53.232;6.556;2023-04-30T11:56:17;102416.25;;;16.87;43.79
29359;BME280;16347;53.232;6.556;2023-04-30T11:58:47;102408.00;;;16.87;43.93
29359;BME280;16347;53.232;6.556;2023-04-30T12:01:16;102411.13;;;16.92;42.21
29359;BME280;16347;53.232;6.556;2023-04-30T12:03:45;102409.28;;;17.01;43.35
29359;BME280;16347;53.232;6.556;2023-04-30T12:06:21;102402.53;;;17.21;43.57
29359;BME280;16347;53.232;6.556;2023-04-30T12:08:52;102400.88;;;17.36;42.79
29359;BME280;16347;53.232;6.556;2023-04-30T12:11:21;102398.31;;;17.43;41.45
29359;BME280;16347;53.232;6.556;2023-04-30T12:13:52;102393.41;;;17.55;42.29
29359;BME280;16347;53.232;6.556;2023-04-30T12:16:22;102388.31;;;17.68;43.47
29359;BME280;16347;53.232;6.556;2023-04-30T12:18:50;102386.09;;;17.71;40.66
29359;BME280;16347;53.232;6.556;2023-04-30T12:21:20;102384.19;;;17.80;40.80
29359;BME280;16347;53.232;6.556;2023-04-30T12:23:48;102380.59;;;17.87;41.57
29359;BME280;16347;53.232;6.556;2023-04-30T12:26:17;102373.06;;;17.98;40.75
29359;BME280;16347;53.232;6.556;2023-04-30T12:28:46;102374.28;;;18.11;40.77
29359;BME280;16347;53.232;6.556;2023-04-30T12:31:16;102366.53;;;18.07;39.54
29359;BME280;16347;53.232;6.556;2023-04-30T12:33:52;102371.69;;;18.18;40.42
29359;BME280;16347;53.232;6.556;2023-04-30T12:36:20;102371.19;;;18.30;40.39
29359;BME280;16347;53.232;6.556;2023-04-30T12:38:48;102364.97;;;18.44;39.63
29359;BME280;16347;53.232;6.556;2023-04-30T12:41:18;102357.94;;;18.50;39.96
29359;BME280;16347;53.232;6.556;2023-04-30T12:43:47;102360.84;;;18.49;37.95
29359;BME280;16347;53.232;6.556;2023-04-30T12:46:24;102351.91;;;18.63;39.22
29359;BME280;16347;53.232;6.556;2023-04-30T12:48:53;102357.06;;;18.66;40.41
29359;BME280;16347;53.232;6.556;2023-04-30T12:51:21;102352.53;;;18.89;38.69
29359;BME280;16347;53.232;6.556;2023-04-30T12:53:49;102351.16;;;18.93;38.14
29359;BME280;16347;53.232;6.556;2023-04-30T12:56:18;102347.13;;;19.12;38.53
29359;BME280;16347;53.232;6.556;2023-04-30T12:58:47;102347.03;;;19.28;39.28
29359;BME280;16347;53.232;6.556;2023-04-30T13:01:18;102332.38;;;19.35;36.92